Time;durP1;ratioP1;P1;durP2;ratioP2;P2;SDS_P1;SDS_P2;PMS_P1;PMS_P2;Temp;Humidity;BMP_temperature;BMP_pressure;BME280_temperature;BME280_humidity;BME280_pressure;Samples;Min_cycle;Max_cycle;Signal;HPM_P1;HPM_P2
2022/06/24 00:00:08;;;;;;;8.80;2.42;;;20.30;99.90;;;;;;5047792;28;20029;-76
2022/06/24 00:02:34;;;;;;;7.50;1.98;;;20.30;99.90;;;;;;5039242;28;20026;-78
2022/06/24 00:05:02;;;;;;;7.78;2.08;;;20.30;99.90;;;;;;5047526;28;20032;-77
2022/06/24 00:07:27;;;;;;;6.47;2.05;;;20.20;99.90;;;;;;5044608;28;20033;-77
2022/06/24 00:09:53;;;;;;;6.95;2.10;;;20.20;99.90;;;;;;5041196;28;20025;-77
2022/06/24 00:12:24;;;;;;;5.28;1.65;;;20.30;99.90;;;;;;5038888;28;20043;-77
2022/06/24 00:15:00;;;;;;;5.68;1.73;;;20.30;99.90;;;;;;5045058;28;20051;-78
2022/06/24 00:17:28;;;;;;;5.70;2.17;;;20.30;99.90;;;;;;5075710;28;20025;-78
2022/06/24 00:19:58;;;;;;;5.10;1.67;;;20.30;99.90;;;;;;5046833;28;20508;-77
2022/06/24 00:22:26;;;;;;;7.13;2.00;;;20.30;99.90;;;;;;5046875;28;20529;-76
2022/06/24 00:25:08;;;;;;;9.23;1.77;;;20.20;99.90;;;;;;5046893;28;20029;-76
2022/06/24 00:27:34;;;;;;;4.75;2.00;;;20.30;99.90;;;;;;5046615;28;20068;-77
2022/06/24 00:30:11;;;;;;;11.98;2.33;;;20.20;99.90;;;;;;5046368;28;20075;-77
2022/06/24 00:32:37;;;;;;;6.03;2.13;;;20.20;99.90;;;;;;5050572;28;20029;-77
2022/06/24 00:35:07;;;;;;;9.50;2.33;;;20.10;99.90;;;;;;5045308;28;20030;-77
2022/06/24 00:37:34;;;;;;;6.60;1.77;;;20.10;99.90;;;;;;5043719;28;20024;-78
2022/06/24 00:40:23;;;;;;;7.53;2.08;;;20.10;99.90;;;;;;5066079;28;20439;-78
2022/06/24 00:42:49;;;;;;;4.65;2.03;;;20.00;99.90;;;;;;5048788;28;20030;-76
2022/06/24 00:45:24;;;;;;;7.53;2.03;;;20.00;99.90;;;;;;5078818;28;20054;-77
2022/06/24 00:47:51;;;;;;;5.32;1.80;;;20.00;99.90;;;;;;5042282;28;20027;-77
2022/06/24 00:50:25;;;;;;;6.90;2.00;;;20.00;99.90;;;;;;5059737;28;20489;-77
2022/06/24 00:53:00;;;;;;;3.53;1.67;;;20.00;99.90;;;;;;5051247;28;20104;-77
2022/06/24 00:55:27;;;;;;;4.10;1.77;;;20.00;99.90;;;;;;5042017;28;20033;-77
2022/06/24 00:57:54;;;;;;;11.18;2.17;;;20.00;99.90;;;;;;5050730;28;20021;-77
2022/06/24 01:00:22;;;;;;;7.57;1.70;;;19.90;99.90;;;;;;5045070;28;20079;-77
2022/06/24 01:02:48;;;;;;;7.25;1.80;;;19.90;99.90;;;;;;5049387;28;20021;-77
2022/06/24 01:05:16;;;;;;;8.38;3.15;;;20.00;99.90;;;;;;5047604;28;20036;-77
2022/06/24 01:07:42;;;;;;;6.50;3.17;;;19.90;99.90;;;;;;5048850;28;20037;-78
2022/06/24 01:10:09;;;;;;;7.22;3.20;;;19.90;99.90;;;;;;5047876;28;20115;-77
2022/06/24 01:12:36;;;;;;;8.35;3.58;;;19.90;99.90;;;;;;5045710;28;20540;-77
2022/06/24 01:15:04;;;;;;;8.88;3.08;;;19.80;99.90;;;;;;5045762;28;20029;-77
2022/06/24 01:17:30;;;;;;;10.50;3.33;;;19.80;99.90;;;;;;5046843;28;20059;-77
2022/06/24 01:19:56;;;;;;;7.55;2.35;;;19.80;99.90;;;;;;5042513;28;20067;-77
2022/06/24 01:22:26;;;;;;;10.30;2.70;;;19.70;99.90;;;;;;5049857;28;20048;-76
2022/06/24 01:24:52;;;;;;;6.72;2.97;;;19.60;99.90;;;;;;5048065;28;20079;-77
2022/06/24 01:27:19;;;;;;;6.85;2.25;;;19.60;99.90;;;;;;5044241;28;20489;-77
2022/06/24 01:29:45;;;;;;;7.90;2.38;;;19.60;99.90;;;;;;5047078;28;20066;-77
2022/06/24 01:32:12;;;;;;;9.57;2.63;;;19.60;99.90;;;;;;5043593;28;20060;-77
2022/06/24 01:34:38;;;;;;;11.02;2.83;;;19.60;99.90;;;;;;5046938;28;20129;-77
2022/06/24 01:37:04;;;;;;;9.20;2.80;;;19.60;99.90;;;;;;5048057;28;20109;-77
2022/06/24 01:39:30;;;;;;;7.00;2.25;;;19.60;99.90;;;;;;5045969;28;20035;-76
2022/06/24 01:41:56;;;;;;;8.88;2.47;;;19.50;99.90;;;;;;5062460;28;20178;-76
2022/06/24 01:44:22;;;;;;;7.30;2.25;;;19.50;99.90;;;;;;5048985;28;20029;-77
2022/06/24 01:46:49;;;;;;;6.22;2.22;;;19.50;99.90;;;;;;5048666;28;20382;-78
2022/06/24 01:49:15;;;;;;;6.50;2.17;;;19.50;99.90;;;;;;5045736;28;20036;-77
2022/06/24 01:51:42;;;;;;;7.00;2.75;;;19.40;99.90;;;;;;5047688;28;20029;-77
2022/06/24 01:54:09;;;;;;;8.85;2.30;;;19.30;99.90;;;;;;5044174;28;20060;-78
2022/06/24 01:56:34;;;;;;;5.60;1.70;;;19.30;99.90;;;;;;5038605;28;20048;-77
2022/06/24 01:59:00;;;;;;;8.55;2.65;;;19.20;99.90;;;;;;5046295;28;20033;-78
2022/06/24 02:01:26;;;;;;;7.90;2.47;;;19.20;99.90;;;;;;5047251;28;20053;-77
2022/06/24 02:03:52;;;;;;;8.02;2.53;;;19.20;99.90;;;;;;5044932;28;20025;-77
2022/06/24 02:06:18;;;;;;;8.82;2.38;;;19.20;99.90;;;;;;5045100;28;20424;-77
2022/06/24 02:08:44;;;;;;;9.23;2.50;;;19.10;99.90;;;;;;5053175;28;20091;-77
2022/06/24 02:13:58;;;;;;;8.27;2.50;;;19.10;99.90;;;;;;5043173;28;20386;-77
2022/06/24 02:16:25;;;;;;;6.40;2.03;;;19.10;99.90;;;;;;5043087;28;20021;-77
2022/06/24 02:18:51;;;;;;;6.90;2.50;;;19.10;99.90;;;;;;5045985;28;20104;-77
2022/06/24 02:21:17;;;;;;;8.05;2.35;;;19.10;99.90;;;;;;5040793;28;20028;-77
2022/06/24 02:23:43;;;;;;;7.25;2.50;;;19.10;99.90;;;;;;5057089;28;20428;-77
2022/06/24 02:26:10;;;;;;;9.77;2.50;;;19.10;99.90;;;;;;5044816;28;20417;-77
2022/06/24 02:28:35;;;;;;;7.07;2.38;;;19.10;99.90;;;;;;5044517;28;20028;-77
2022/06/24 02:31:02;;;;;;;9.32;2.30;;;19.20;99.90;;;;;;5047009;28;20432;-76
2022/06/24 02:33:28;;;;;;;9.68;2.30;;;19.20;99.90;;;;;;5047945;28;20064;-77
2022/06/24 02:35:54;;;;;;;5.53;2.30;;;19.20;99.90;;;;;;5044586;28;20024;-77
2022/06/24 02:38:20;;;;;;;6.68;2.20;;;19.20;99.90;;;;;;5044270;28;20563;-77
2022/06/24 02:40:46;;;;;;;7.95;2.00;;;19.20;99.90;;;;;;5045488;28;20037;-77
2022/06/24 02:43:19;;;;;;;6.88;1.88;;;19.10;99.90;;;;;;5045175;28;20447;-77
2022/06/24 02:45:46;;;;;;;6.13;1.73;;;19.10;99.90;;;;;;5043697;28;20044;-77
2022/06/24 02:48:14;;;;;;;7.35;2.17;;;19.10;99.90;;;;;;5049237;28;20031;-77
2022/06/24 02:50:48;;;;;;;6.28;2.10;;;19.10;99.90;;;;;;5046484;28;20047;-77
2022/06/24 02:53:16;;;;;;;7.28;2.25;;;19.10;99.90;;;;;;5048262;28;20017;-77
2022/06/24 02:55:46;;;;;;;5.57;1.60;;;19.10;99.90;;;;;;5047672;28;20071;-77
2022/06/24 02:58:12;;;;;;;5.18;2.00;;;19.00;99.90;;;;;;5061772;28;20036;-77
2022/06/24 03:00:41;;;;;;;3.67;2.40;;;19.10;99.90;;;;;;5047553;28;20025;-77
2022/06/24 03:03:10;;;;;;;7.43;2.67;;;19.00;99.90;;;;;;5043941;28;20027;-77
2022/06/24 03:05:36;;;;;;;7.88;2.70;;;19.00;99.90;;;;;;5047971;28;20467;-76
2022/06/24 03:08:02;;;;;;;16.88;2.83;;;19.00;99.90;;;;;;5043350;28;20087;-76
2022/06/24 03:10:28;;;;;;;8.23;2.72;;;18.90;99.90;;;;;;5047951;28;20036;-77
2022/06/24 03:12:53;;;;;;;6.72;2.10;;;18.90;99.90;;;;;;5046131;28;20104;-77
2022/06/24 03:15:19;;;;;;;5.40;2.92;;;18.90;99.90;;;;;;5040739;28;20033;-77
2022/06/24 03:17:46;;;;;;;6.07;2.47;;;18.80;99.90;;;;;;5045531;28;20656;-77
2022/06/24 03:20:12;;;;;;;7.30;2.30;;;18.80;99.90;;;;;;5043569;28;20100;-77
2022/06/24 03:22:38;;;;;;;9.18;2.53;;;18.70;99.90;;;;;;5047571;28;20132;-77
2022/06/24 03:25:05;;;;;;;7.63;2.50;;;18.70;99.90;;;;;;5042852;28;20063;-77
2022/06/24 03:27:31;;;;;;;7.20;2.67;;;18.70;99.90;;;;;;5042891;28;20065;-77
2022/06/24 03:29:57;;;;;;;6.13;2.85;;;18.60;99.90;;;;;;5046550;28;20103;-77
2022/06/24 03:32:23;;;;;;;9.73;2.85;;;18.60;99.90;;;;;;5045166;28;20120;-77
2022/06/24 03:34:48;;;;;;;8.93;2.90;;;18.60;99.90;;;;;;5045460;28;20091;-77
2022/06/24 03:37:14;;;;;;;8.85;3.00;;;18.60;99.90;;;;;;5046890;28;20922;-77
2022/06/24 03:39:39;;;;;;;7.57;3.05;;;18.60;99.90;;;;;;5043363;28;20444;-77
2022/06/24 03:42:05;;;;;;;6.63;2.90;;;18.60;99.90;;;;;;5045645;28;20036;-76
2022/06/24 03:44:31;;;;;;;7.78;2.95;;;18.60;99.90;;;;;;5047629;28;20040;-77
2022/06/24 03:46:58;;;;;;;11.85;2.53;;;18.60;99.90;;;;;;5043820;28;20017;-77
2022/06/24 03:49:23;;;;;;;8.30;2.75;;;18.60;99.90;;;;;;5046084;28;20033;-77
2022/06/24 03:51:49;;;;;;;8.77;2.33;;;18.60;99.90;;;;;;5046521;28;20067;-77
2022/06/24 03:54:15;;;;;;;8.80;2.85;;;18.60;99.90;;;;;;5045767;28;20427;-77
2022/06/24 03:56:41;;;;;;;7.22;2.40;;;18.60;99.90;;;;;;5051895;28;20029;-77
2022/06/24 03:59:07;;;;;;;6.72;2.50;;;18.60;99.90;;;;;;5046916;28;20494;-77
2022/06/24 04:01:32;;;;;;;8.68;2.30;;;18.60;99.90;;;;;;5044050;28;20017;-76
2022/06/24 04:03:58;;;;;;;8.48;2.47;;;18.60;99.90;;;;;;5047995;28;20033;-78
2022/06/24 04:06:23;;;;;;;9.52;2.88;;;18.60;99.90;;;;;;5046238;28;20021;-78
2022/06/24 04:08:49;;;;;;;7.25;2.20;;;18.60;99.90;;;;;;5048708;28;20048;-77
2022/06/24 04:11:16;;;;;;;14.20;2.45;;;18.60;99.90;;;;;;5046718;28;20025;-77
2022/06/24 04:13:42;;;;;;;11.68;2.50;;;18.60;99.90;;;;;;5051029;28;20033;-77
2022/06/24 04:16:08;;;;;;;9.43;2.90;;;18.60;99.90;;;;;;5048587;28;20025;-77
2022/06/24 04:18:34;;;;;;;7.30;2.28;;;18.60;99.90;;;;;;5049557;28;20025;-77
2022/06/24 04:21:00;;;;;;;11.23;2.28;;;18.60;99.90;;;;;;5049589;28;20485;-77
2022/06/24 04:23:26;;;;;;;7.40;2.63;;;18.70;99.90;;;;;;5050001;28;20025;-77
2022/06/24 04:25:53;;;;;;;12.18;2.92;;;18.70;99.90;;;;;;5052816;28;20032;-77
2022/06/24 04:28:18;;;;;;;10.63;2.88;;;18.80;99.90;;;;;;5042841;28;20433;-78
2022/06/24 04:30:44;;;;;;;5.05;2.22;;;18.90;99.90;;;;;;5055611;28;20021;-78
2022/06/24 04:33:10;;;;;;;6.13;2.08;;;18.90;99.90;;;;;;5050587;28;20087;-77
2022/06/24 04:35:36;;;;;;;10.98;2.30;;;19.00;99.90;;;;;;5046246;28;20029;-77
2022/06/24 04:38:02;;;;;;;8.02;2.60;;;19.20;99.90;;;;;;5046378;28;20023;-77
2022/06/24 04:40:28;;;;;;;10.88;2.78;;;19.30;99.90;;;;;;5047700;28;20470;-77
2022/06/24 04:42:54;;;;;;;13.52;2.78;;;19.30;99.90;;;;;;5043470;28;20123;-77
2022/06/24 04:45:20;;;;;;;7.72;2.90;;;19.40;99.90;;;;;;5045937;28;20120;-77
2022/06/24 04:47:46;;;;;;;7.07;2.38;;;19.50;99.90;;;;;;5043766;28;20109;-78
2022/06/24 04:50:11;;;;;;;9.35;2.22;;;19.60;99.90;;;;;;5044033;28;20431;-76
2022/06/24 04:52:38;;;;;;;5.20;1.88;;;19.80;99.90;;;;;;5044256;28;20071;-77
2022/06/24 04:55:06;;;;;;;9.80;2.55;;;19.90;99.90;;;;;;5050063;28;20112;-77
2022/06/24 04:57:31;;;;;;;6.53;1.98;;;20.10;99.90;;;;;;5045523;28;20467;-77
2022/06/24 04:59:57;;;;;;;13.55;2.92;;;20.30;99.90;;;;;;5040252;28;20033;-77
2022/06/24 05:02:23;;;;;;;5.95;1.90;;;20.50;99.90;;;;;;5049910;28;20213;-77
2022/06/24 05:04:48;;;;;;;8.65;2.17;;;20.60;99.90;;;;;;5047497;28;20546;-77
2022/06/24 05:07:14;;;;;;;6.20;2.22;;;20.80;99.90;;;;;;5047445;28;20049;-65
2022/06/24 05:09:40;;;;;;;9.23;2.35;;;21.00;99.90;;;;;;5047707;28;20381;-66
2022/06/24 05:12:06;;;;;;;6.53;2.28;;;21.10;99.90;;;;;;5046483;28;20025;-66
2022/06/24 05:14:33;;;;;;;7.20;1.90;;;21.10;99.90;;;;;;5046928;28;20025;-66
2022/06/24 05:16:59;;;;;;;7.60;1.92;;;21.20;99.90;;;;;;5044569;28;20120;-66
2022/06/24 05:19:25;;;;;;;12.57;2.58;;;21.40;99.90;;;;;;5047047;28;20032;-66
2022/06/24 05:21:51;;;;;;;6.13;1.73;;;21.50;99.90;;;;;;5039363;28;20025;-67
2022/06/24 05:24:17;;;;;;;8.98;2.40;;;21.60;99.90;;;;;;5044145;28;20063;-66
2022/06/24 05:26:43;;;;;;;6.57;1.73;;;21.80;99.90;;;;;;5041536;28;20043;-67
2022/06/24 05:29:09;;;;;;;7.35;2.08;;;21.80;99.90;;;;;;5049237;28;20028;-67
2022/06/24 05:31:35;;;;;;;5.32;1.73;;;21.90;99.90;;;;;;5047185;28;20065;-67
2022/06/24 05:34:01;;;;;;;5.68;1.95;;;22.00;99.90;;;;;;5047488;28;20090;-67
2022/06/24 05:36:26;;;;;;;6.43;1.98;;;22.10;99.90;;;;;;5045016;28;20107;-67
2022/06/24 05:38:52;;;;;;;6.78;1.50;;;22.30;99.90;;;;;;5040448;28;20025;-66
2022/06/24 05:41:18;;;;;;;6.82;2.05;;;22.40;99.90;;;;;;5041658;28;20486;-67
2022/06/24 05:43:45;;;;;;;8.18;2.70;;;22.60;99.90;;;;;;5044818;28;20056;-77
2022/06/24 05:46:10;;;;;;;7.70;1.70;;;22.80;99.90;;;;;;5047888;28;20096;-78
2022/06/24 05:48:36;;;;;;;4.88;2.03;;;22.90;99.90;;;;;;5050000;28;20482;-73
2022/06/24 05:51:09;;;;;;;6.15;1.67;;;23.10;99.90;;;;;;5045855;28;20025;-78
2022/06/24 05:56:20;;;;;;;6.22;1.85;;;23.40;99.90;;;;;;5047793;28;20036;-78
2022/06/24 05:58:46;;;;;;;7.07;1.70;;;23.60;99.90;;;;;;5043200;28;20021;-77
2022/06/24 06:01:12;;;;;;;8.93;2.22;;;23.60;99.90;;;;;;5048204;28;20033;-78
2022/06/24 06:03:38;;;;;;;4.82;1.60;;;23.70;99.90;;;;;;5049971;28;20048;-77
2022/06/24 06:06:05;;;;;;;5.13;2.00;;;23.80;99.90;;;;;;5047012;28;20496;-76
2022/06/24 06:08:30;;;;;;;2.83;1.60;;;23.90;99.90;;;;;;5048260;28;20040;-77
2022/06/24 06:10:56;;;;;;;3.92;1.80;;;24.00;99.90;;;;;;5044755;28;20564;-76
2022/06/24 06:13:22;;;;;;;5.90;1.98;;;24.00;99.90;;;;;;5040798;28;20037;-77
2022/06/24 06:15:47;;;;;;;7.50;1.88;;;23.90;99.90;;;;;;5044618;28;20408;-77
2022/06/24 06:18:13;;;;;;;5.75;2.08;;;23.90;99.90;;;;;;5037883;28;20048;-76
2022/06/24 06:20:39;;;;;;;11.70;2.33;;;24.00;99.90;;;;;;5046940;28;20025;-76
2022/06/24 06:23:04;;;;;;;6.85;1.70;;;23.90;99.90;;;;;;5046221;28;20486;-77
2022/06/24 06:25:31;;;;;;;3.85;1.48;;;23.90;99.90;;;;;;5052090;28;20043;-76
2022/06/24 06:27:57;;;;;;;8.50;1.80;;;23.90;99.90;;;;;;5045580;28;20028;-75
2022/06/24 06:30:23;;;;;;;6.55;2.13;;;23.90;99.90;;;;;;5035787;28;20435;-78
2022/06/24 06:32:48;;;;;;;6.80;1.55;;;24.10;99.90;;;;;;5040346;28;20029;-77
2022/06/24 06:35:14;;;;;;;6.43;1.65;;;24.10;99.90;;;;;;5045168;28;20432;-77
2022/06/24 06:37:40;;;;;;;8.05;1.92;;;24.20;99.90;;;;;;5041268;28;20107;-77
2022/06/24 06:40:06;;;;;;;4.22;1.48;;;24.20;99.90;;;;;;5051469;28;20040;-77
2022/06/24 06:42:32;;;;;;;5.93;1.77;;;24.30;99.90;;;;;;5040653;28;20025;-77
2022/06/24 06:45:00;;;;;;;8.45;1.70;;;24.20;99.90;;;;;;5036094;28;20086;-77
2022/06/24 06:47:26;;;;;;;13.93;2.30;;;24.30;99.90;;;;;;5042594;28;20048;-76
2022/06/24 06:49:51;;;;;;;5.05;1.60;;;24.40;99.90;;;;;;5044260;28;20021;-78
2022/06/24 06:52:17;;;;;;;6.15;1.55;;;24.40;99.90;;;;;;5049350;28;20067;-77
2022/06/24 06:54:42;;;;;;;3.67;1.55;;;24.50;99.90;;;;;;5050114;28;20036;-78
2022/06/24 06:57:08;;;;;;;4.45;1.65;;;24.60;99.90;;;;;;5047260;28;20030;-77
2022/06/24 06:59:34;;;;;;;5.70;1.40;;;24.70;99.90;;;;;;5043319;28;20028;-77
2022/06/24 07:01:59;;;;;;;6.05;2.20;;;24.80;99.90;;;;;;5044106;28;20448;-77
2022/06/24 07:04:25;;;;;;;4.63;1.70;;;24.80;99.90;;;;;;5045296;28;20037;-77
2022/06/24 07:06:53;;;;;;;7.25;1.80;;;24.80;99.90;;;;;;5060884;28;20033;-78
2022/06/24 07:09:19;;;;;;;4.70;1.73;;;24.90;99.90;;;;;;5047527;28;20028;-78
2022/06/24 07:11:44;;;;;;;5.20;1.90;;;24.80;99.90;;;;;;5041625;28;20029;-78
2022/06/24 07:14:10;;;;;;;5.63;1.52;;;24.80;99.90;;;;;;5047494;28;20083;-77
2022/06/24 07:16:36;;;;;;;2.72;1.33;;;24.70;99.10;;;;;;5040293;28;20019;-78
2022/06/24 07:19:02;;;;;;;3.78;1.58;;;24.70;98.50;;;;;;5041057;28;20030;-77
2022/06/24 07:21:28;;;;;;;6.00;1.48;;;24.60;97.40;;;;;;5038258;28;20056;-78
2022/06/24 07:23:53;;;;;;;3.17;1.20;;;24.60;97.20;;;;;;5047189;28;20063;-78
2022/06/24 07:26:19;;;;;;;6.25;1.95;;;24.70;96.70;;;;;;5051622;28;20029;-79
2022/06/24 07:28:45;;;;;;;6.93;1.52;;;24.70;97.00;;;;;;5053203;28;20020;-78
2022/06/24 07:31:17;;;;;;;5.07;1.50;;;24.60;97.00;;;;;;5052236;28;20029;-79
2022/06/24 07:33:43;;;;;;;2.53;1.27;;;24.50;96.80;;;;;;5053753;28;20055;-77
2022/06/24 07:36:09;;;;;;;4.88;1.58;;;24.40;96.20;;;;;;5047172;28;20091;-78
2022/06/24 07:38:35;;;;;;;2.45;1.38;;;24.30;96.30;;;;;;5047257;28;20487;-78
2022/06/24 07:41:01;;;;;;;2.78;1.48;;;24.30;96.30;;;;;;5048854;28;20025;-76
2022/06/24 07:43:27;;;;;;;4.57;1.70;;;24.30;96.60;;;;;;5045244;28;20029;-77
2022/06/24 07:45:53;;;;;;;6.18;1.40;;;24.20;96.30;;;;;;5051524;28;20021;-78
2022/06/24 07:48:19;;;;;;;7.35;1.50;;;24.30;96.40;;;;;;5045810;28;20056;-74
2022/06/24 07:50:45;;;;;;;5.60;1.48;;;24.20;96.60;;;;;;5041517;28;20036;-76
2022/06/24 07:53:10;;;;;;;7.57;2.17;;;24.20;96.30;;;;;;5046686;28;20082;-77
2022/06/24 07:58:20;;;;;;;1.80;1.20;;;24.20;96.20;;;;;;5045904;28;20140;-75
2022/06/24 08:00:47;;;;;;;2.40;1.50;;;24.20;96.40;;;;;;5043404;28;20057;-76
2022/06/24 08:03:12;;;;;;;3.60;1.40;;;24.20;96.50;;;;;;5055538;28;20111;-76
2022/06/24 08:05:38;;;;;;;3.47;1.38;;;24.10;96.60;;;;;;5060854;28;20052;-78
2022/06/24 08:08:04;;;;;;;8.13;1.75;;;24.10;96.40;;;;;;5057185;28;20496;-76
2022/06/24 08:10:30;;;;;;;8.18;1.60;;;24.00;96.60;;;;;;5050218;28;20076;-77
2022/06/24 08:12:55;;;;;;;5.53;1.88;;;24.10;96.70;;;;;;5048433;28;20032;-75
2022/06/24 08:15:21;;;;;;;3.15;1.70;;;24.10;96.60;;;;;;5044593;28;20495;-76
2022/06/24 08:17:48;;;;;;;2.45;1.80;;;24.10;96.60;;;;;;5046649;28;20025;-76
2022/06/24 08:20:14;;;;;;;3.80;1.60;;;24.10;96.50;;;;;;5053410;28;20024;-76
2022/06/24 08:22:40;;;;;;;2.95;1.48;;;24.10;96.60;;;;;;5050874;28;20047;-74
2022/06/24 08:25:06;;;;;;;2.83;1.52;;;24.10;96.60;;;;;;5046697;28;20081;-76
2022/06/24 08:27:32;;;;;;;2.45;1.40;;;24.10;96.50;;;;;;5061904;28;20036;-75
2022/06/24 08:29:58;;;;;;;2.38;1.42;;;24.10;96.50;;;;;;5038554;28;20021;-74
2022/06/24 08:32:24;;;;;;;6.30;1.55;;;24.10;96.60;;;;;;5048001;28;20040;-75
2022/06/24 08:34:50;;;;;;;5.70;1.67;;;24.10;96.70;;;;;;5052569;28;20028;-75
2022/06/24 08:37:16;;;;;;;3.60;1.40;;;24.10;96.90;;;;;;5045559;28;20032;-77
2022/06/24 08:39:41;;;;;;;5.22;1.55;;;24.20;96.90;;;;;;5048011;28;20458;-76
2022/06/24 08:42:12;;;;;;;5.47;1.55;;;24.30;96.90;;;;;;5054318;28;20036;-76
2022/06/24 08:44:39;;;;;;;2.58;1.50;;;24.40;96.50;;;;;;5058353;28;20034;-77
2022/06/24 08:47:05;;;;;;;3.92;1.40;;;24.50;96.20;;;;;;5050517;28;20433;-77
2022/06/24 08:49:32;;;;;;;6.90;1.60;;;24.60;95.80;;;;;;5048492;28;20029;-75
2022/06/24 08:52:00;;;;;;;5.20;1.80;;;24.80;95.90;;;;;;5053011;28;20389;-76
2022/06/24 08:54:29;;;;;;;6.35;2.00;;;24.90;95.40;;;;;;5050656;28;20029;-74
2022/06/24 08:56:55;;;;;;;2.55;1.58;;;24.90;95.20;;;;;;5066612;28;20055;-73
2022/06/24 08:59:21;;;;;;;7.20;1.85;;;25.00;95.20;;;;;;5064164;28;20043;-78
2022/06/24 09:01:47;;;;;;;6.20;1.67;;;25.20;95.40;;;;;;5070011;28;20017;-74
2022/06/24 09:04:13;;;;;;;5.15;1.67;;;25.20;95.10;;;;;;5057133;28;20469;-75
2022/06/24 09:06:40;;;;;;;4.43;1.73;;;25.20;94.90;;;;;;5049023;28;20460;-74
2022/06/24 09:09:07;;;;;;;4.93;1.63;;;25.30;94.90;;;;;;5046694;28;20108;-75
2022/06/24 09:11:40;;;;;;;7.70;2.47;;;25.30;94.50;;;;;;5042515;28;20041;-74
2022/06/24 09:14:08;;;;;;;19.33;8.30;;;25.40;94.70;;;;;;5044416;28;20107;-74
2022/06/24 09:16:37;;;;;;;6.32;2.03;;;25.40;94.40;;;;;;5049614;28;20051;-75
2022/06/24 09:19:05;;;;;;;9.20;2.25;;;25.50;94.30;;;;;;5045712;28;20056;-75
2022/06/24 09:21:39;;;;;;;8.30;1.75;;;25.70;93.10;;;;;;5054170;28;20049;-75
2022/06/24 09:24:05;;;;;;;6.40;1.85;;;25.80;93.10;;;;;;5050749;28;20029;-75
2022/06/24 09:26:42;;;;;;;4.75;1.58;;;25.80;92.60;;;;;;5042300;28;20051;-76
2022/06/24 09:29:15;;;;;;;5.10;1.40;;;25.70;92.10;;;;;;5052651;28;20104;-76
2022/06/24 09:31:41;;;;;;;4.75;1.75;;;25.50;92.30;;;;;;5053386;28;20394;-75
2022/06/24 09:34:08;;;;;;;4.65;1.48;;;25.30;93.30;;;;;;5046904;28;20033;-74
2022/06/24 09:36:35;;;;;;;4.30;1.50;;;25.30;93.60;;;;;;5052152;28;20024;-75
2022/06/24 09:39:06;;;;;;;3.28;1.85;;;25.20;93.50;;;;;;5053877;28;20478;-74
2022/06/24 09:41:46;;;;;;;5.20;1.65;;;25.10;93.60;;;;;;5059646;28;20021;-74
2022/06/24 09:44:12;;;;;;;2.90;1.85;;;24.90;93.20;;;;;;5042562;28;20038;-75
2022/06/24 09:46:38;;;;;;;5.65;1.80;;;24.90;93.50;;;;;;5045253;28;20036;-75
2022/06/24 09:49:06;;;;;;;4.82;1.70;;;25.00;93.70;;;;;;5052538;28;20024;-74
2022/06/24 09:51:32;;;;;;;3.33;1.65;;;25.10;93.60;;;;;;5052288;28;20021;-75
2022/06/24 09:53:58;;;;;;;4.97;1.80;;;25.10;93.20;;;;;;5048047;28;20540;-74
2022/06/24 09:56:24;;;;;;;5.03;1.52;;;25.10;93.50;;;;;;5049387;28;20063;-74
2022/06/24 10:01:37;;;;;;;3.63;1.63;;;25.40;93.30;;;;;;5047011;28;20032;-74
2022/06/24 10:04:05;;;;;;;4.32;1.27;;;25.60;93.10;;;;;;5049514;28;20055;-76
2022/06/24 10:06:36;;;;;;;3.88;1.65;;;25.70;93.00;;;;;;5043233;28;20513;-76
2022/06/24 10:09:06;;;;;;;6.18;1.55;;;25.80;92.70;;;;;;5051982;28;20119;-76
2022/06/24 10:11:38;;;;;;;4.30;1.70;;;25.90;92.40;;;;;;5041924;28;20037;-76
2022/06/24 10:14:04;;;;;;;5.55;1.67;;;25.80;91.90;;;;;;5047563;28;20033;-76
2022/06/24 10:16:31;;;;;;;2.85;1.52;;;25.90;92.00;;;;;;5049257;28;20029;-76
2022/06/24 10:18:58;;;;;;;5.43;2.00;;;26.10;91.80;;;;;;5048274;28;20027;-76
2022/06/24 10:21:24;;;;;;;5.00;1.70;;;26.10;91.60;;;;;;5051352;28;20386;-76
2022/06/24 10:23:53;;;;;;;6.22;2.45;;;26.30;91.70;;;;;;5058504;28;20027;-76
2022/06/24 10:26:32;;;;;;;2.30;1.42;;;26.40;91.60;;;;;;5049655;28;20027;-74
2022/06/24 10:29:03;;;;;;;4.20;1.88;;;26.50;91.20;;;;;;5050544;28;20033;-75
2022/06/24 10:31:56;;;;;;;10.63;1.90;;;26.60;90.50;;;;;;5054493;28;20398;-71
2022/06/24 10:34:30;;;;;;;2.95;1.60;;;26.40;90.90;;;;;;5041761;28;20029;-70
2022/06/24 10:37:12;;;;;;;8.10;1.92;;;26.60;91.10;;;;;;5043897;28;20479;-70
2022/06/24 10:39:50;;;;;;;7.97;1.77;;;26.40;91.00;;;;;;5044472;28;20021;-68
2022/06/24 10:42:20;;;;;;;6.38;1.67;;;26.50;90.90;;;;;;5040592;28;20116;-69
2022/06/24 10:44:55;;;;;;;4.85;1.98;;;26.60;90.70;;;;;;5043757;28;20055;-70
2022/06/24 10:47:27;;;;;;;2.20;1.30;;;26.60;90.70;;;;;;5044543;28;20025;-71
2022/06/24 10:49:59;;;;;;;3.25;2.08;;;26.70;90.40;;;;;;5046395;28;20075;-69
2022/06/24 10:52:48;;;;;;;5.03;1.33;;;26.60;90.40;;;;;;5044774;28;20029;-73
2022/06/24 10:55:29;;;;;;;6.30;2.22;;;26.60;89.90;;;;;;5074855;28;20033;-74
2022/06/24 10:58:09;;;;;;;2.60;1.40;;;26.60;89.60;;;;;;5043527;28;20025;-74
2022/06/24 11:00:37;;;;;;;2.95;1.73;;;26.60;89.90;;;;;;5043502;28;20052;-69
2022/06/24 11:03:03;;;;;;;4.75;2.03;;;26.80;89.50;;;;;;5043244;28;20370;-69
2022/06/24 11:05:34;;;;;;;4.72;1.70;;;26.70;90.10;;;;;;5046565;28;20032;-72
2022/06/24 11:08:00;;;;;;;6.35;1.85;;;26.70;90.20;;;;;;5045186;28;20032;-71
2022/06/24 11:10:31;;;;;;;4.90;1.70;;;26.70;89.40;;;;;;5046190;28;20028;-70
2022/06/24 11:12:59;;;;;;;3.30;1.65;;;26.70;88.80;;;;;;5046166;28;20025;-70
2022/06/24 11:15:39;;;;;;;3.72;2.00;;;26.60;88.70;;;;;;5038770;28;20033;-69
2022/06/24 11:18:06;;;;;;;5.10;1.42;;;26.60;87.70;;;;;;5039763;28;20378;-75
2022/06/24 11:20:36;;;;;;;2.72;1.50;;;26.50;87.10;;;;;;5037123;28;20071;-73
2022/06/24 11:23:09;;;;;;;3.30;1.20;;;26.60;88.20;;;;;;5037515;28;20017;-72
2022/06/24 11:25:37;;;;;;;3.72;1.60;;;26.50;84.70;;;;;;5040711;28;21519;-71
2022/06/24 11:28:03;;;;;;;5.95;1.50;;;26.60;86.00;;;;;;5041332;28;20037;-74
2022/06/24 11:30:29;;;;;;;2.92;1.50;;;26.60;86.50;;;;;;5044773;28;20059;-71
2022/06/24 11:33:01;;;;;;;3.75;1.45;;;26.60;86.80;;;;;;5053660;28;20063;-70
2022/06/24 11:35:28;;;;;;;6.82;1.63;;;26.80;85.90;;;;;;5041875;28;20025;-71
2022/06/24 11:37:58;;;;;;;5.22;1.73;;;26.90;86.20;;;;;;5041743;28;20478;-72
2022/06/24 11:40:26;;;;;;;2.58;1.27;;;26.90;85.90;;;;;;5037656;28;20025;-74
2022/06/24 11:42:55;;;;;;;11.32;2.05;;;27.00;85.30;;;;;;5040243;28;20025;-73
2022/06/24 11:45:33;;;;;;;4.13;1.60;;;27.10;85.90;;;;;;5038492;28;20386;-75
2022/06/24 11:47:58;;;;;;;10.88;1.70;;;27.20;84.60;;;;;;5042531;28;20051;-75
2022/06/24 11:50:24;;;;;;;3.65;1.30;;;27.20;86.30;;;;;;5041023;28;20033;-74
2022/06/24 11:52:50;;;;;;;4.20;1.48;;;27.30;84.60;;;;;;5043575;28;20036;-74
2022/06/24 11:55:29;;;;;;;4.40;1.92;;;27.30;84.50;;;;;;5036268;28;20029;-73
2022/06/24 11:57:57;;;;;;;4.30;1.63;;;27.40;84.90;;;;;;5034664;28;20018;-73
2022/06/24 12:00:24;;;;;;;2.63;1.52;;;27.50;84.80;;;;;;5038880;28;20029;-73
2022/06/24 12:02:51;;;;;;;4.75;1.70;;;27.50;84.30;;;;;;5037016;28;20036;-75
2022/06/24 12:05:18;;;;;;;2.63;1.42;;;27.60;83.50;;;;;;5042449;28;20067;-74
2022/06/24 12:07:43;;;;;;;3.10;1.50;;;27.60;81.90;;;;;;5036214;28;20399;-72
2022/06/24 12:10:09;;;;;;;4.47;1.38;;;27.60;82.10;;;;;;5039246;28;20026;-76
2022/06/24 12:12:55;;;;;;;4.03;1.35;;;27.50;82.00;;;;;;5044527;28;20025;-72
2022/06/24 12:15:23;;;;;;;6.30;2.63;;;27.50;82.20;;;;;;5043200;28;20025;-74
2022/06/24 12:17:53;;;;;;;2.53;1.23;;;27.30;80.90;;;;;;5034742;28;20482;-71
2022/06/24 12:20:25;;;;;;;8.80;3.80;;;27.30;81.00;;;;;;5051195;28;20017;-70
2022/06/24 12:23:12;;;;;;;7.35;2.08;;;27.20;80.40;;;;;;5049057;28;20028;-70
2022/06/24 12:25:42;;;;;;;3.60;1.33;;;27.10;80.80;;;;;;5056810;28;20055;-72
2022/06/24 12:28:24;;;;;;;8.27;3.90;;;27.00;80.70;;;;;;5045973;28;20036;-69
2022/06/24 12:31:00;;;;;;;30.77;19.73;;;27.00;81.10;;;;;;5045327;28;20032;-69
2022/06/24 12:33:28;;;;;;;2.63;2.00;;;26.90;81.30;;;;;;5042670;28;20025;-71
2022/06/24 12:36:14;;;;;;;4.07;1.85;;;26.90;81.60;;;;;;5042393;28;20029;-71
2022/06/24 12:38:41;;;;;;;3.13;1.25;;;26.80;82.40;;;;;;5063059;28;20049;-72
2022/06/24 12:41:17;;;;;;;3.70;1.35;;;26.80;82.50;;;;;;5043384;28;20044;-69
2022/06/24 12:43:58;;;;;;;6.07;2.10;;;26.70;82.40;;;;;;5044256;28;20391;-70
2022/06/24 12:46:27;;;;;;;7.28;2.97;;;26.60;82.40;;;;;;5046382;28;20017;-70
2022/06/24 12:51:42;;;;;;;3.88;1.42;;;26.40;82.80;;;;;;5049107;28;20035;-70
2022/06/24 12:54:08;;;;;;;3.33;1.52;;;26.30;84.00;;;;;;5045320;28;20029;-68
2022/06/24 12:56:34;;;;;;;2.63;1.52;;;26.10;84.40;;;;;;5049311;28;20025;-68
2022/06/24 12:59:00;;;;;;;4.70;1.73;;;26.00;85.10;;;;;;5041010;28;20070;-68
2022/06/24 13:01:26;;;;;;;4.32;1.70;;;25.90;86.20;;;;;;5044418;28;20433;-69